CheckWX is a tool to help pilots better visualize weather data.  It is not intended as a substitute for an official pre-flight weather briefing.

08:05:08 UTC

RKTN TAF
Daegu Airport
Daegu, South Korea
TAF RKTN 190500Z 1906/2012 31008KT CAVOK TX21/1906Z TN06/1921Z

Mar-19@
06:00 UTC

Mar-19 @ 06:00 UTC

Mar-20@
12:00 UTC

Mar-20 @ 12:00 UTC

TAF RKTN 190500Z 1906/2012 31008KT CAVOK TX21/1906Z TN06/1921Z
Wind
  • 310° at 8 KTS
Cloud Levels
  • No significant clouds